Portada
METAR-TAF:

METAR-TAF

Aeropuertos :

Aeropuerto Teniente Coronel Luis A. Mantilla

Tulcán, Ecuador

latitud: 00-48-34N, longitud: 077-42-29W, altitud: 2941 m

Observación

El informe se hizo hace 16 horas y 27 minutos, a las 20:00 UTC
Viento 8 kt del este-sureste
Temperatura 18°C
Humedad 52%
Presión 1031 hPa
Visibilidad 10 km o más
Cielo nuboso a una altura de 2000 ft

METAR: SETU 112000Z 12008KT 9999 BKN020 18/08 Q1031

Hora: 07:27 (12:27 UTC)


TAF: falta

Observaciones y pronósticos meteorológicos de más de 4000 aeropuertos (mensajes METAR y TAF).

Los puntos amarillos y rojos representan las estaciones disponibles.

Ponga el ratón en el punto deseado para ver el nombre de la estación.

Haga clic para ver las observaciones y los pronósticos meteorológicos.

Para cambiar el mapa : haga clic en los botones verdes con una cruz de color negro para hacer un zoom, en el botón verde con un guión para alejar o en las flechas verdes para mapas adyacentes.


METAR-TAF: